»·PEaware :: CANNON21 KLSV-KLSV

CANNON21 :: KLSV-KLSV

FLIGHT INFORMATION

Flight Status: Arrived
Operator: Unknown
More flights by this operator :: More flights under this callsign
Pilot: Matthew M. (8235)
Aircraft: FAIRCHILD A-10 THUNDERBOLT 2
(A10)
More flights by this aircraft type
Origin: KLSV Nellis AFB
United States
Destination: KLSV Nellis AFB
United States
More flights between these airports :: More routes between these airports
Route: +FYTTR LOW
File this flight plan on PilotEdge
Remarks:
Altitude:
(Current/Filed)
4,500ft
Speed:
(Current/Filed)
250kts
Departed: 20-Jun-20 05:05 PM
Arrived: 20-Jun-20 05:48 PM
Distance/Time
Traveled:
1nm/0:42
Distance/Time
To Go:
Arrived

Flight Plot

Page will automatically refresh every two minutes.


Map Options




Map Legend


Flown Route
Filed Route
Departure Airport
Arrival Airport
Navaid (VOR, NDB)
Fix

Horizontal Profiles

Position Reports

Time Latitude Longitude Heading Altitude Ground
Speed
20-Jun-20 16:49 36.225431 -115.045475 187 1848ft 0kts
20-Jun-20 16:50 36.225431 -115.045475 187 1848ft 0kts
20-Jun-20 16:51 36.225431 -115.045475 187 1848ft 0kts
20-Jun-20 16:55 36.225431 -115.045475 187 1848ft 0kts
20-Jun-20 16:56 36.225431 -115.045475 187 1848ft 0kts
20-Jun-20 16:57 36.225431 -115.045475 187 1848ft 0kts
20-Jun-20 16:58 36.225431 -115.045475 187 1848ft 0kts
20-Jun-20 16:59 36.225431 -115.045475 187 1848ft 0kts
20-Jun-20 17:00 36.225431 -115.045475 187 1848ft 0kts
20-Jun-20 17:01 36.225431 -115.045475 187 1848ft 0kts
20-Jun-20 17:02 36.225342 -115.045152 87 1848ft 1kts
20-Jun-20 17:03 36.225342 -115.045139 87 1848ft 0kts
20-Jun-20 17:04 36.236559 -115.031492 40 1859ft 147kts
20-Jun-20 17:05 36.274250 -114.997231 19 3129ft 188kts
20-Jun-20 17:06 36.320829 -115.014448 286 5094ft 197kts
20-Jun-20 17:07 36.334732 -115.085558 315 6417ft 235kts
20-Jun-20 17:08 36.407524 -115.106033 329 5996ft 324kts
20-Jun-20 17:09 36.491005 -115.146652 354 6158ft 316kts
20-Jun-20 17:10 36.559321 -115.136013 357 10005ft 228kts
20-Jun-20 17:11 36.640495 -115.140770 1 8840ft 334kts
20-Jun-20 17:12 36.696855 -115.206949 248 9870ft 307kts
20-Jun-20 17:13 36.670427 -115.295355 243 10110ft 298kts
20-Jun-20 17:14 36.645135 -115.390352 252 9907ft 280kts
20-Jun-20 17:15 36.612412 -115.475141 214 8645ft 274kts
20-Jun-20 17:16 36.574837 -115.525175 278 5575ft 321kts
20-Jun-20 17:17 36.611324 -115.567390 97 5438ft 187kts
20-Jun-20 17:19 36.584393 -115.588303 266 5075ft 232kts
20-Jun-20 17:20 36.583109 -115.654617 271 3365ft 170kts
20-Jun-20 17:21 36.581884 -115.707622 213 4127ft 167kts
20-Jun-20 17:22 36.561106 -115.657643 95 4896ft 199kts
20-Jun-20 17:23 36.583249 -115.656434 270 3429ft 200kts
20-Jun-20 17:24 36.572629 -115.706717 140 3847ft 181kts
20-Jun-20 17:25 36.563388 -115.645556 87 4860ft 168kts
20-Jun-20 17:26 36.583048 -115.655215 272 3339ft 141kts
20-Jun-20 17:27 36.579086 -115.707779 191 3696ft 196kts
20-Jun-20 17:28 36.558398 -115.645298 65 4869ft 227kts
20-Jun-20 17:29 36.583442 -115.666091 270 3134ft 123kts
20-Jun-20 17:30 36.584184 -115.686078 275 3145ft 131kts
20-Jun-20 17:31 36.563808 -115.685451 102 4622ft 161kts
20-Jun-20 17:32 36.585607 -115.668693 324 3170ft 162kts
20-Jun-20 17:33 36.629829 -115.672165 40 3176ft 267kts
20-Jun-20 17:34 36.676280 -115.599506 59 5930ft 151kts
20-Jun-20 17:35 36.680072 -115.517586 72 3280ft 355kts
20-Jun-20 17:36 36.664569 -115.420017 109 6305ft 272kts
20-Jun-20 17:37 36.649755 -115.327778 88 8695ft 258kts
20-Jun-20 17:38 36.643189 -115.236515 94 11053ft 272kts
20-Jun-20 17:38 36.619534 -115.162736 124 12639ft 284kts
20-Jun-20 17:40 36.534217 -115.132291 184 13732ft 321kts
20-Jun-20 17:41 36.447528 -115.153537 192 12236ft 315kts
20-Jun-20 17:41 36.381779 -115.170288 191 10257ft 265kts
20-Jun-20 17:43 36.309661 -115.190279 192 6344ft 204kts
20-Jun-20 17:43 36.261660 -115.193817 143 6144ft 226kts
20-Jun-20 17:44 36.223540 -115.135333 131 5625ft 204kts
20-Jun-20 17:45 36.197236 -115.085682 91 3859ft 148kts
20-Jun-20 17:46 36.220493 -115.048859 40 2041ft 130kts
20-Jun-20 17:47 36.232376 -115.035674 121 1850ft 9kts
20-Jun-20 17:48 36.231953 -115.035069 129 1850ft 0kts
20-Jun-20 17:49 36.231953 -115.035069 129 1850ft 0kts
20-Jun-20 17:50 36.229285 -115.033101 218 1850ft 16kts
20-Jun-20 17:51 36.227473 -115.034111 309 1850ft 3kts

Navigation Log

Ident Type
Flight plan parsing failed, navigation log unavailable